Time;durP1;ratioP1;P1;durP2;ratioP2;P2;SDS_P1;SDS_P2;PMS_P1;PMS_P2;Temp;Humidity;BMP_temperature;BMP_pressure;BME280_temperature;BME280_humidity;BME280_pressure;Samples;Min_cycle;Max_cycle;Signal;HPM_P1;HPM_P2
2023/03/12 00:01:36;;;;;;;12.57;4.32;;;-0.20;99.90;;;;;;5094142;28;20494;-56
2023/03/12 00:04:03;;;;;;;11.00;4.20;;;0.20;99.90;;;;;;5094023;28;20048;-56
2023/03/12 00:06:28;;;;;;;10.20;4.75;;;0.20;99.90;;;;;;5094386;28;20070;-56
2023/03/12 00:08:54;;;;;;;9.70;3.25;;;0.10;99.90;;;;;;5093889;28;20793;-56
2023/03/12 00:11:20;;;;;;;9.93;4.15;;;-0.10;99.90;;;;;;5093833;28;20050;-56
2023/03/12 00:13:51;;;;;;;9.00;3.47;;;0.20;99.90;;;;;;5093793;28;20040;-56
2023/03/12 00:16:17;;;;;;;11.85;3.80;;;-0.10;99.90;;;;;;5093659;28;20054;-56
2023/03/12 00:18:46;;;;;;;8.32;3.42;;;0.20;99.90;;;;;;5093824;28;20156;-55
2023/03/12 00:21:11;;;;;;;10.63;3.72;;;0.10;99.90;;;;;;5093880;28;20387;-56
2023/03/12 00:23:37;;;;;;;7.55;3.28;;;-0.10;99.90;;;;;;5093762;28;20484;-56
2023/03/12 00:26:09;;;;;;;8.32;3.15;;;-0.10;99.90;;;;;;5093485;28;20451;-57
2023/03/12 00:28:35;;;;;;;10.30;3.40;;;-0.30;99.90;;;;;;5093451;28;20036;-55
2023/03/12 00:31:02;;;;;;;7.05;3.60;;;0.10;99.90;;;;;;5093557;28;20281;-56
2023/03/12 00:33:28;;;;;;;8.95;3.45;;;0.10;99.90;;;;;;5093349;28;20538;-55
2023/03/12 00:35:55;;;;;;;7.57;3.83;;;0.00;99.90;;;;;;5093538;28;20051;-56
2023/03/12 00:38:21;;;;;;;8.10;3.25;;;-0.10;99.90;;;;;;5093211;28;20032;-56
2023/03/12 00:40:47;;;;;;;7.57;3.17;;;-0.10;99.90;;;;;;5093173;28;20036;-56
2023/03/12 00:43:13;;;;;;;8.40;3.40;;;0.10;99.90;;;;;;5092416;28;20040;-56
2023/03/12 00:45:39;;;;;;;7.35;3.28;;;-0.30;99.90;;;;;;5093405;28;20051;-57
2023/03/12 00:48:05;;;;;;;9.52;3.70;;;-0.30;99.90;;;;;;5093101;28;20036;-56
2023/03/12 00:50:31;;;;;;;7.32;3.30;;;-0.30;99.90;;;;;;5093017;28;20028;-57
2023/03/12 00:52:56;;;;;;;7.97;3.13;;;-0.30;99.90;;;;;;5093078;28;20047;-55
2023/03/12 00:55:22;;;;;;;10.07;3.30;;;-0.50;99.90;;;;;;5093056;28;20133;-56
2023/03/12 00:57:48;;;;;;;9.23;3.78;;;-0.40;99.90;;;;;;5091621;28;20036;-57
2023/03/12 01:00:14;;;;;;;10.10;3.65;;;-0.20;99.90;;;;;;5093053;28;20180;-56
2023/03/12 01:02:40;;;;;;;7.72;3.53;;;-0.20;99.90;;;;;;5092835;28;20475;-56
2023/03/12 01:05:09;;;;;;;8.88;3.20;;;-0.30;99.90;;;;;;5092908;28;20110;-56
2023/03/12 01:07:35;;;;;;;8.15;4.03;;;-0.50;99.90;;;;;;5092710;28;20083;-57
2023/03/12 01:10:01;;;;;;;7.93;3.30;;;-0.10;99.90;;;;;;5092420;28;20456;-56
2023/03/12 01:12:27;;;;;;;9.65;3.65;;;-0.20;99.90;;;;;;5092904;28;20466;-56
2023/03/12 01:14:53;;;;;;;6.00;3.20;;;-0.10;99.90;;;;;;5092878;28;20043;-56
2023/03/12 01:17:18;;;;;;;9.38;3.55;;;-0.60;99.90;;;;;;5092843;28;20514;-54
2023/03/12 01:19:44;;;;;;;8.65;3.22;;;-0.20;99.90;;;;;;5092745;28;20044;-55
2023/03/12 01:22:10;;;;;;;7.03;3.35;;;-0.10;99.90;;;;;;5092667;28;20527;-55
2023/03/12 01:24:35;;;;;;;6.38;3.10;;;-0.60;99.90;;;;;;5092452;28;20110;-56
2023/03/12 01:27:01;;;;;;;7.88;3.20;;;-0.50;99.90;;;;;;5092563;28;20083;-56
2023/03/12 01:29:27;;;;;;;10.00;3.17;;;-0.10;99.90;;;;;;5092757;28;20040;-55
2023/03/12 01:31:53;;;;;;;8.43;3.67;;;-0.10;99.90;;;;;;5092681;28;20043;-55
2023/03/12 01:34:18;;;;;;;5.88;2.78;;;-0.20;99.90;;;;;;5091136;28;20484;-55
2023/03/12 01:36:46;;;;;;;6.65;3.00;;;-0.10;99.90;;;;;;5092422;28;20090;-56
2023/03/12 01:39:13;;;;;;;7.38;3.72;;;-0.10;99.90;;;;;;5092093;28;20516;-55
2023/03/12 01:41:39;;;;;;;6.50;2.97;;;-0.20;99.90;;;;;;5092154;28;20043;-56
2023/03/12 01:44:06;;;;;;;6.97;3.05;;;-0.30;99.90;;;;;;5092395;28;20097;-58
2023/03/12 01:46:42;;;;;;;10.23;3.60;;;-0.20;99.90;;;;;;5092286;28;20039;-55
2023/03/12 01:49:15;;;;;;;8.10;3.25;;;0.00;99.90;;;;;;5091891;28;20036;-55
2023/03/12 01:51:43;;;;;;;8.57;3.20;;;-0.30;99.90;;;;;;5090717;28;20485;-55
2023/03/12 01:54:40;;;;;;;9.43;3.47;;;-0.30;99.90;;;;;;5092016;28;20071;-56
2023/03/12 01:57:13;;;;;;;7.85;3.55;;;0.00;99.90;;;;;;5091202;28;20048;-56
2023/03/12 01:59:50;;;;;;;8.77;3.35;;;0.20;99.90;;;;;;5092015;28;20040;-56
2023/03/12 02:02:18;;;;;;;9.13;2.95;;;0.20;99.90;;;;;;5092086;28;20036;-56
2023/03/12 02:04:46;;;;;;;8.40;3.72;;;0.00;99.90;;;;;;5091977;28;20067;-55
2023/03/12 02:07:15;;;;;;;6.75;3.10;;;-0.30;99.90;;;;;;5090992;28;20134;-56
2023/03/12 02:09:44;;;;;;;8.43;3.40;;;0.20;99.90;;;;;;5091857;28;20048;-55
2023/03/12 02:12:10;;;;;;;7.72;2.95;;;0.20;99.90;;;;;;5092015;28;20515;-56
2023/03/12 02:14:37;;;;;;;10.80;3.50;;;0.20;99.90;;;;;;5091982;28;20377;-55
2023/03/12 02:17:04;;;;;;;9.18;2.92;;;0.30;99.90;;;;;;5090994;28;20044;-56
2023/03/12 02:19:53;;;;;;;8.57;3.35;;;0.30;99.90;;;;;;5091805;28;20089;-55
2023/03/12 02:22:21;;;;;;;8.98;3.50;;;-0.20;99.90;;;;;;5091934;28;20035;-55
2023/03/12 02:25:24;;;;;;;8.20;3.63;;;0.40;99.90;;;;;;5091585;28;20068;-55
2023/03/12 02:27:50;;;;;;;9.00;3.08;;;0.00;99.90;;;;;;5079109;28;20106;-55
2023/03/12 02:30:17;;;;;;;8.68;3.45;;;0.00;99.90;;;;;;5091789;28;20037;-55
2023/03/12 02:32:47;;;;;;;9.88;3.15;;;0.40;99.90;;;;;;5091860;28;20127;-55
2023/03/12 02:35:15;;;;;;;12.35;3.28;;;0.30;99.90;;;;;;5091646;28;20040;-55
2023/03/12 02:37:52;;;;;;;9.50;3.75;;;0.40;99.90;;;;;;5091988;28;20396;-53
2023/03/12 02:40:25;;;;;;;9.70;3.28;;;0.40;99.90;;;;;;5091675;28;20040;-55
2023/03/12 02:42:52;;;;;;;7.78;3.10;;;0.10;99.90;;;;;;5091651;28;20040;-55
2023/03/12 02:45:17;;;;;;;9.57;3.20;;;0.10;99.90;;;;;;5091617;28;20484;-55
2023/03/12 02:47:43;;;;;;;8.73;3.05;;;0.00;99.90;;;;;;5091750;28;20028;-56
2023/03/12 02:50:09;;;;;;;7.90;3.20;;;0.30;99.90;;;;;;5090214;28;20044;-56
2023/03/12 02:52:36;;;;;;;9.48;3.22;;;0.00;99.90;;;;;;5091850;28;20399;-55
2023/03/12 02:55:03;;;;;;;7.63;3.05;;;0.00;99.90;;;;;;5091535;28;20048;-56
2023/03/12 02:57:29;;;;;;;8.38;2.88;;;0.50;99.90;;;;;;5090288;28;20480;-56
2023/03/12 02:59:55;;;;;;;7.25;3.00;;;0.40;99.90;;;;;;5073270;28;20070;-55
2023/03/12 03:02:21;;;;;;;10.45;3.47;;;0.20;99.90;;;;;;5091438;28;20090;-56
2023/03/12 03:04:46;;;;;;;7.00;3.08;;;0.50;99.90;;;;;;5091081;28;20059;-56
2023/03/12 03:07:13;;;;;;;8.30;3.38;;;0.30;99.90;;;;;;5094846;28;20044;-55
2023/03/12 03:09:39;;;;;;;9.95;3.25;;;0.10;99.90;;;;;;5076922;28;20132;-56
2023/03/12 03:12:05;;;;;;;7.07;3.50;;;0.40;99.90;;;;;;5093768;28;20503;-56
2023/03/12 03:14:31;;;;;;;10.32;3.60;;;0.00;99.90;;;;;;5095136;28;20433;-56
2023/03/12 03:16:56;;;;;;;10.23;3.60;;;0.40;99.90;;;;;;5094900;28;20488;-56
2023/03/12 03:19:22;;;;;;;14.75;4.38;;;0.40;99.90;;;;;;5095014;28;20036;-56
2023/03/12 03:21:48;;;;;;;12.65;3.78;;;0.60;99.90;;;;;;5095081;28;20035;-55
2023/03/12 03:24:14;;;;;;;8.50;3.13;;;0.20;99.90;;;;;;5094698;28;20072;-56
2023/03/12 03:26:39;;;;;;;9.02;3.28;;;0.70;99.90;;;;;;5094845;28;20044;-56
2023/03/12 03:29:05;;;;;;;10.00;2.85;;;0.20;99.90;;;;;;5093845;28;20369;-55
2023/03/12 03:31:31;;;;;;;9.13;3.08;;;0.60;99.90;;;;;;5094833;28;20047;-55
2023/03/12 03:33:57;;;;;;;8.43;2.80;;;0.60;99.90;;;;;;5093563;28;20101;-56
2023/03/12 03:36:22;;;;;;;9.93;3.00;;;0.30;99.90;;;;;;5094705;28;20126;-56
2023/03/12 03:38:49;;;;;;;8.65;3.05;;;0.30;99.90;;;;;;5094725;28;20403;-56
2023/03/12 03:41:19;;;;;;;8.90;3.03;;;0.70;99.90;;;;;;5094569;28;20067;-56
2023/03/12 03:43:46;;;;;;;7.70;3.65;;;0.30;99.90;;;;;;5094580;28;20038;-56
2023/03/12 03:46:13;;;;;;;7.65;2.97;;;0.30;99.90;;;;;;5094249;28;20040;-55
2023/03/12 03:48:39;;;;;;;9.23;3.13;;;0.70;99.90;;;;;;5094338;28;20035;-56
2023/03/12 03:51:07;;;;;;;10.38;3.70;;;0.70;99.90;;;;;;5094129;28;20056;-56
2023/03/12 03:53:33;;;;;;;9.05;3.35;;;0.80;99.90;;;;;;5094537;28;20404;-56
2023/03/12 03:56:08;;;;;;;8.75;3.50;;;0.40;99.90;;;;;;5094229;28;20044;-56
2023/03/12 03:58:33;;;;;;;9.15;3.50;;;0.80;99.90;;;;;;5094054;28;20061;-56
2023/03/12 04:00:59;;;;;;;10.15;3.30;;;0.40;99.90;;;;;;5094126;28;20085;-56
2023/03/12 04:03:25;;;;;;;6.90;3.15;;;0.70;99.90;;;;;;5092884;28;20092;-55
2023/03/12 04:06:10;;;;;;;7.38;3.47;;;0.40;99.90;;;;;;5093703;28;20063;-56
2023/03/12 04:08:36;;;;;;;10.75;4.30;;;0.50;99.90;;;;;;5094068;28;20073;-57
2023/03/12 04:11:07;;;;;;;10.43;4.55;;;0.40;99.90;;;;;;5093769;28;20040;-56
2023/03/12 04:13:33;;;;;;;8.70;3.97;;;0.40;99.90;;;;;;5093854;28;20051;-57
2023/03/12 04:15:59;;;;;;;13.55;5.47;;;0.60;99.90;;;;;;5093881;28;20388;-56
2023/03/12 04:18:24;;;;;;;10.13;3.50;;;0.40;99.90;;;;;;5093894;28;20529;-55
2023/03/12 04:20:50;;;;;;;7.25;3.83;;;0.40;99.90;;;;;;5092475;28;20453;-56
2023/03/12 04:23:16;;;;;;;8.90;3.50;;;0.60;99.90;;;;;;5093829;28;20365;-57
2023/03/12 04:25:41;;;;;;;9.27;3.55;;;0.50;99.90;;;;;;5093609;28;20036;-57
2023/03/12 04:28:07;;;;;;;10.90;4.40;;;0.80;99.90;;;;;;5092741;28;20094;-57
2023/03/12 04:30:33;;;;;;;7.75;4.30;;;0.80;99.90;;;;;;5093619;28;20040;-56
2023/03/12 04:32:59;;;;;;;8.55;4.00;;;0.70;99.90;;;;;;5093461;28;20488;-56
2023/03/12 04:35:25;;;;;;;7.53;4.20;;;0.80;99.90;;;;;;5093441;28;20439;-56
2023/03/12 04:37:51;;;;;;;9.40;4.25;;;0.50;99.90;;;;;;5093278;28;20171;-56
2023/03/12 04:40:18;;;;;;;8.43;4.10;;;0.70;99.90;;;;;;5093348;28;20089;-56
2023/03/12 04:42:43;;;;;;;8.70;3.83;;;0.50;99.90;;;;;;5092260;28;20085;-56
2023/03/12 04:45:10;;;;;;;10.00;4.07;;;0.80;99.90;;;;;;5093547;28;20064;-57
2023/03/12 04:47:36;;;;;;;11.27;3.70;;;0.80;99.90;;;;;;5093023;28;20047;-57
2023/03/12 04:50:02;;;;;;;9.55;4.00;;;0.70;99.90;;;;;;5093220;28;20120;-56
2023/03/12 04:52:28;;;;;;;11.05;4.40;;;0.50;99.90;;;;;;5093065;28;20032;-57
2023/03/12 04:54:54;;;;;;;10.13;3.72;;;0.60;99.90;;;;;;5093024;28;20032;-57
2023/03/12 04:57:20;;;;;;;9.15;3.63;;;0.50;99.90;;;;;;5093152;28;20040;-56
2023/03/12 04:59:46;;;;;;;7.72;3.70;;;0.50;99.90;;;;;;5093249;28;20028;-56
2023/03/12 05:02:11;;;;;;;11.40;4.20;;;0.80;99.90;;;;;;5093034;28;20028;-57
2023/03/12 05:04:37;;;;;;;8.20;3.40;;;0.60;99.90;;;;;;5092712;28;20075;-56
2023/03/12 05:07:03;;;;;;;10.02;3.45;;;0.80;99.90;;;;;;5092955;28;20036;-57
2023/03/12 05:09:29;;;;;;;9.05;3.78;;;0.80;99.90;;;;;;5092768;28;20480;-57
2023/03/12 05:11:54;;;;;;;8.10;3.65;;;0.80;99.90;;;;;;5092985;28;20040;-56
2023/03/12 05:14:20;;;;;;;10.15;3.92;;;0.90;99.90;;;;;;5092801;28;20539;-57
2023/03/12 05:16:46;;;;;;;9.30;4.50;;;0.80;99.90;;;;;;5092984;28;20044;-56
2023/03/12 05:19:11;;;;;;;9.15;3.97;;;0.60;99.90;;;;;;5092745;28;20031;-57
2023/03/12 05:21:41;;;;;;;9.05;4.10;;;0.50;99.90;;;;;;5091578;28;20044;-57
2023/03/12 05:24:07;;;;;;;7.75;3.90;;;0.60;99.90;;;;;;5092459;28;20032;-55
2023/03/12 05:26:33;;;;;;;9.18;3.47;;;0.80;99.90;;;;;;5092777;28;20059;-56
2023/03/12 05:29:00;;;;;;;8.18;4.05;;;0.60;99.90;;;;;;5090684;28;20048;-56
2023/03/12 05:31:31;;;;;;;8.75;3.92;;;0.60;99.90;;;;;;5092469;28;20043;-56
2023/03/12 05:33:58;;;;;;;9.38;4.05;;;0.60;99.90;;;;;;5092362;28;20044;-56
2023/03/12 05:36:24;;;;;;;10.15;3.63;;;0.70;99.90;;;;;;5092261;28;20124;-55
2023/03/12 05:38:50;;;;;;;12.00;3.80;;;0.80;99.90;;;;;;5091087;28;20460;-56
2023/03/12 05:41:25;;;;;;;12.88;3.78;;;0.80;99.90;;;;;;5092336;28;20028;-56
2023/03/12 05:43:52;;;;;;;12.93;4.15;;;0.70;99.90;;;;;;5092402;28;20064;-53
2023/03/12 05:46:18;;;;;;;9.63;3.60;;;0.90;99.90;;;;;;5092210;28;20220;-54
2023/03/12 05:48:43;;;;;;;9.30;3.78;;;0.80;99.90;;;;;;5092155;28;20067;-55
2023/03/12 05:51:09;;;;;;;9.60;3.70;;;0.90;99.90;;;;;;5090930;28;20047;-56
2023/03/12 05:53:35;;;;;;;10.93;3.88;;;0.80;99.90;;;;;;5092275;28;20089;-56
2023/03/12 05:56:06;;;;;;;10.55;4.13;;;0.80;99.90;;;;;;5091951;28;20097;-57
2023/03/12 05:58:33;;;;;;;10.50;3.92;;;0.90;99.90;;;;;;5090958;28;20472;-56
2023/03/12 06:00:58;;;;;;;8.38;4.03;;;0.90;99.90;;;;;;5092143;28;20036;-56
2023/03/12 06:03:24;;;;;;;10.20;4.47;;;1.00;99.90;;;;;;5092084;28;20109;-56
2023/03/12 06:05:53;;;;;;;12.75;3.95;;;0.80;99.90;;;;;;5091897;28;20059;-54
2023/03/12 06:08:23;;;;;;;9.63;3.55;;;0.80;99.90;;;;;;5091924;28;20476;-56
2023/03/12 06:10:55;;;;;;;10.90;4.05;;;1.00;99.90;;;;;;5092030;28;20447;-56
2023/03/12 06:13:21;;;;;;;;;;;0.90;99.90;;;;;;5090916;28;20055;-55
2023/03/12 06:15:48;;;;;;;7.43;3.35;;;0.90;99.90;;;;;;5092049;28;19916;-56
2023/03/12 06:18:13;;;;;;;7.07;3.28;;;0.90;99.90;;;;;;5090712;28;20163;-56
2023/03/12 06:20:39;;;;;;;7.95;3.15;;;1.00;99.90;;;;;;5089580;28;20115;-57
2023/03/12 06:23:05;;;;;;;8.73;3.35;;;1.10;99.90;;;;;;5090486;28;20036;-56
2023/03/12 06:25:31;;;;;;;9.68;3.45;;;0.90;99.90;;;;;;5090753;28;20032;-56
2023/03/12 06:27:56;;;;;;;9.55;3.42;;;1.00;99.90;;;;;;5089115;28;20055;-56
2023/03/12 06:30:22;;;;;;;7.13;3.72;;;1.10;99.90;;;;;;5087069;28;20082;-56
2023/03/12 06:32:48;;;;;;;7.65;3.20;;;0.90;99.90;;;;;;5081193;28;21151;-56
2023/03/12 06:35:14;;;;;;;8.43;2.90;;;1.00;99.90;;;;;;5081608;28;20032;-56
2023/03/12 06:37:39;;;;;;;7.07;3.60;;;1.10;99.90;;;;;;5077927;28;20480;-56
2023/03/12 06:40:08;;;;;;;8.68;3.40;;;1.20;99.90;;;;;;5081247;28;20046;-55
2023/03/12 06:42:34;;;;;;;8.25;3.65;;;1.10;99.90;;;;;;5086141;28;20040;-55
2023/03/12 06:45:00;;;;;;;7.82;3.05;;;1.00;99.90;;;;;;5092048;28;20050;-56
2023/03/12 06:47:26;;;;;;;8.20;3.72;;;1.10;99.90;;;;;;5094182;28;20044;-55
2023/03/12 06:49:51;;;;;;;7.13;4.00;;;1.20;99.90;;;;;;5093967;28;20073;-54
2023/03/12 06:52:17;;;;;;;8.25;3.50;;;1.10;99.90;;;;;;5094297;28;20385;-56
2023/03/12 06:54:43;;;;;;;9.70;3.67;;;1.20;99.90;;;;;;5085401;28;20385;-55
2023/03/12 06:57:08;;;;;;;10.02;4.03;;;1.30;99.90;;;;;;5082142;28;20043;-55
2023/03/12 06:59:34;;;;;;;11.13;3.30;;;1.20;99.90;;;;;;5076327;28;20040;-55
2023/03/12 07:02:00;;;;;;;6.75;3.42;;;1.20;99.90;;;;;;5073618;28;20445;-56
2023/03/12 07:04:26;;;;;;;12.00;3.70;;;1.20;99.90;;;;;;5073236;28;20052;-55
2023/03/12 07:06:52;;;;;;;8.48;3.88;;;1.40;99.90;;;;;;5073227;28;20055;-53
2023/03/12 07:09:19;;;;;;;7.03;3.17;;;1.40;99.90;;;;;;5072738;28;20070;-55
2023/03/12 07:11:44;;;;;;;8.02;3.78;;;1.30;99.90;;;;;;5075817;28;20032;-54
2023/03/12 07:14:10;;;;;;;8.18;3.53;;;1.20;99.90;;;;;;5083884;28;20043;-55
2023/03/12 07:16:36;;;;;;;8.43;3.55;;;1.30;99.90;;;;;;5081127;28;20044;-54
2023/03/12 07:19:02;;;;;;;7.18;4.30;;;1.30;99.90;;;;;;5073359;28;20048;-55
2023/03/12 07:21:30;;;;;;;14.40;4.53;;;1.30;99.90;;;;;;5073017;28;20091;-55
2023/03/12 07:23:56;;;;;;;9.23;3.55;;;1.30;99.90;;;;;;5073204;28;20051;-56
2023/03/12 07:26:22;;;;;;;10.25;4.25;;;1.20;99.90;;;;;;5073005;28;20041;-56
2023/03/12 07:28:48;;;;;;;13.88;5.35;;;1.00;99.90;;;;;;5080705;28;20040;-56
2023/03/12 07:31:13;;;;;;;9.13;4.82;;;1.00;99.90;;;;;;5082671;28;20048;-56
2023/03/12 07:33:39;;;;;;;10.45;5.28;;;1.00;99.90;;;;;;5081032;28;20480;-51
2023/03/12 07:36:05;;;;;;;8.35;4.75;;;1.10;99.90;;;;;;5080867;28;20048;-48
2023/03/12 07:38:31;;;;;;;10.75;4.53;;;1.30;99.90;;;;;;5081595;28;20038;-47
2023/03/12 07:40:57;;;;;;;10.73;4.55;;;0.90;99.90;;;;;;5072957;28;20578;-46
2023/03/12 07:43:24;;;;;;;8.38;4.53;;;1.30;99.90;;;;;;5072675;28;20040;-56
2023/03/12 07:45:50;;;;;;;10.13;4.20;;;1.40;99.90;;;;;;5072584;28;20417;-55
2023/03/12 07:48:18;;;;;;;10.15;5.82;;;0.80;99.90;;;;;;5071932;28;20059;-54
2023/03/12 07:50:44;;;;;;;7.50;4.18;;;1.30;99.90;;;;;;5089067;28;20075;-55
2023/03/12 07:53:10;;;;;;;9.43;4.57;;;1.40;99.90;;;;;;5071882;28;20052;-56
2023/03/12 07:55:36;;;;;;;9.70;4.65;;;1.30;99.90;;;;;;5072331;28;20066;-55
2023/03/12 07:58:02;;;;;;;10.35;5.03;;;1.40;99.90;;;;;;5072384;28;20044;-56
2023/03/12 08:00:29;;;;;;;11.48;4.75;;;0.70;99.90;;;;;;5070874;28;20373;-55
2023/03/12 08:02:56;;;;;;;8.80;4.57;;;1.40;99.90;;;;;;5072726;28;20446;-55
2023/03/12 08:05:23;;;;;;;8.10;4.32;;;0.90;99.90;;;;;;5070760;28;20122;-55
2023/03/12 08:07:51;;;;;;;10.73;5.20;;;1.10;99.90;;;;;;5072434;28;20055;-55
2023/03/12 08:10:17;;;;;;;10.32;4.88;;;1.40;99.90;;;;;;5072295;28;20174;-56
2023/03/12 08:12:43;;;;;;;9.82;5.10;;;0.90;99.90;;;;;;5072008;28;20044;-56
2023/03/12 08:15:11;;;;;;;12.32;4.90;;;1.40;99.90;;;;;;5071149;28;20393;-55
2023/03/12 08:17:37;;;;;;;8.82;4.82;;;0.90;99.90;;;;;;5070820;28;20458;-56
2023/03/12 08:20:07;;;;;;;8.07;4.63;;;1.50;99.90;;;;;;5072026;28;20043;-56
2023/03/12 08:22:32;;;;;;;8.25;4.85;;;0.80;99.90;;;;;;5071687;28;20063;-55
2023/03/12 08:24:58;;;;;;;10.13;5.35;;;1.50;99.90;;;;;;5070704;28;20036;-55
2023/03/12 08:27:24;;;;;;;9.35;5.43;;;0.90;99.90;;;;;;5070565;28;20526;-55
2023/03/12 08:29:49;;;;;;;9.75;5.60;;;1.50;99.90;;;;;;5071734;28;20040;-56
2023/03/12 08:32:15;;;;;;;11.60;5.82;;;1.10;99.90;;;;;;5070962;28;20048;-56
2023/03/12 08:34:41;;;;;;;9.30;5.18;;;1.70;99.90;;;;;;5074013;28;20504;-54
2023/03/12 08:37:06;;;;;;;9.27;6.18;;;1.70;99.90;;;;;;5080477;28;20041;-56
2023/03/12 08:39:33;;;;;;;10.75;5.82;;;1.60;99.90;;;;;;5079487;28;20044;-54
2023/03/12 08:41:59;;;;;;;12.63;5.63;;;1.00;99.90;;;;;;5091404;28;20036;-55
2023/03/12 08:44:25;;;;;;;11.18;6.07;;;1.10;99.90;;;;;;5091516;28;20077;-55
2023/03/12 08:46:51;;;;;;;10.10;5.90;;;1.80;99.90;;;;;;5091681;28;20170;-56
2023/03/12 08:49:18;;;;;;;13.82;6.55;;;1.10;99.90;;;;;;5090697;28;20092;-56
2023/03/12 08:51:43;;;;;;;12.48;6.88;;;1.20;99.90;;;;;;5072952;28;20047;-56
2023/03/12 08:54:09;;;;;;;11.90;6.07;;;1.50;99.90;;;;;;5091056;28;20175;-55
2023/03/12 08:56:40;;;;;;;9.23;5.70;;;1.60;99.90;;;;;;5091247;28;20273;-56
2023/03/12 08:59:11;;;;;;;8.60;5.07;;;1.90;99.90;;;;;;5091263;28;20040;-56
2023/03/12 09:01:37;;;;;;;12.30;6.72;;;1.90;99.90;;;;;;5083366;28;20040;-56
2023/03/12 09:04:03;;;;;;;9.07;5.15;;;1.10;99.90;;;;;;5070496;28;20037;-55
2023/03/12 09:06:30;;;;;;;9.10;5.07;;;1.30;99.90;;;;;;5070833;28;20433;-55
2023/03/12 09:08:55;;;;;;;8.65;4.82;;;1.20;99.90;;;;;;5071012;28;20032;-56
2023/03/12 09:11:21;;;;;;;8.10;4.38;;;1.10;99.90;;;;;;5076090;28;20450;-56
2023/03/12 09:13:47;;;;;;;9.75;4.78;;;1.80;99.90;;;;;;5091298;28;20040;-56
2023/03/12 09:16:12;;;;;;;8.20;4.75;;;1.10;99.90;;;;;;5090964;28;20071;-56
2023/03/12 09:18:38;;;;;;;13.23;5.07;;;1.10;99.90;;;;;;5091120;28;20494;-57
2023/03/12 09:21:05;;;;;;;8.98;4.60;;;1.60;99.90;;;;;;5087559;28;20111;-56
2023/03/12 09:23:31;;;;;;;9.52;4.90;;;1.30;99.90;;;;;;5081441;28;20040;-57
2023/03/12 09:25:56;;;;;;;9.82;5.53;;;1.50;99.90;;;;;;5080047;28;20040;-57
2023/03/12 09:28:22;;;;;;;9.68;5.00;;;1.10;99.90;;;;;;5080071;28;20042;-56
2023/03/12 09:30:48;;;;;;;9.23;5.63;;;1.50;99.90;;;;;;5077350;28;20037;-57
2023/03/12 09:33:14;;;;;;;10.00;6.05;;;1.20;99.90;;;;;;5078441;28;20041;-57
2023/03/12 09:35:41;;;;;;;9.82;5.60;;;1.50;99.90;;;;;;5077943;28;20040;-56
2023/03/12 09:38:10;;;;;;;9.43;5.32;;;1.00;99.90;;;;;;5070401;28;20067;-57
2023/03/12 09:40:38;;;;;;;9.45;5.20;;;1.10;99.90;;;;;;5069944;28;20044;-57
2023/03/12 09:43:10;;;;;;;11.35;5.63;;;1.70;99.90;;;;;;5070688;28;20063;-57
2023/03/12 09:45:40;;;;;;;10.05;5.70;;;0.90;99.90;;;;;;5070646;28;20051;-57
2023/03/12 09:48:26;;;;;;;9.10;4.80;;;1.00;99.90;;;;;;5070624;28;20370;-56
2023/03/12 09:50:52;;;;;;;9.88;5.55;;;1.40;99.90;;;;;;5088822;28;20044;-57
2023/03/12 09:53:39;;;;;;;11.77;6.43;;;1.70;99.90;;;;;;5089564;28;20051;-57
2023/03/12 09:56:13;;;;;;;10.70;6.18;;;1.10;99.90;;;;;;5090539;28;20384;-57
2023/03/12 09:58:41;;;;;;;9.23;5.63;;;1.10;99.90;;;;;;5090506;28;20043;-57
2023/03/12 10:01:34;;;;;;;10.40;5.88;;;2.00;99.90;;;;;;5081243;28;20056;-57
2023/03/12 10:04:10;;;;;;;8.38;4.82;;;1.40;99.90;;;;;;5079638;28;20487;-57
2023/03/12 10:06:54;;;;;;;8.77;4.50;;;1.20;99.90;;;;;;5080680;28;20113;-57
2023/03/12 10:09:50;;;;;;;7.93;4.70;;;1.50;99.90;;;;;;5079042;28;20032;-57
2023/03/12 10:12:25;;;;;;;8.35;4.93;;;1.20;99.90;;;;;;5080841;28;20043;-57
2023/03/12 10:15:06;;;;;;;8.27;4.82;;;1.30;99.90;;;;;;5082186;28;20558;-57
2023/03/12 10:17:42;;;;;;;9.80;5.60;;;2.10;99.90;;;;;;5061443;28;20056;-57
2023/03/12 10:20:26;;;;;;;9.20;4.85;;;1.30;99.90;;;;;;5073900;28;20043;-58
2023/03/12 10:23:10;;;;;;;11.57;5.63;;;2.20;99.90;;;;;;5081358;28;20039;-58
2023/03/12 10:26:10;;;;;;;8.80;4.97;;;1.80;99.90;;;;;;5084531;28;20043;-57
2023/03/12 10:28:50;;;;;;;7.82;4.18;;;1.70;99.90;;;;;;5070842;28;20045;-58
2023/03/12 10:31:33;;;;;;;9.32;5.20;;;1.60;99.90;;;;;;5084377;28;20048;-59
2023/03/12 10:34:01;;;;;;;7.40;4.50;;;2.40;99.90;;;;;;5075264;28;20074;-58
2023/03/12 10:36:38;;;;;;;9.38;5.13;;;1.90;99.90;;;;;;5093909;28;20082;-58
2023/03/12 10:39:12;;;;;;;8.25;5.00;;;2.60;99.90;;;;;;5093973;28;20087;-58
2023/03/12 10:41:37;;;;;;;9.38;4.80;;;1.60;99.90;;;;;;5093947;28;20032;-58
2023/03/12 10:44:07;;;;;;;8.13;4.63;;;1.60;99.90;;;;;;5094140;28;20042;-58
2023/03/12 10:46:36;;;;;;;11.80;6.18;;;1.60;99.90;;;;;;5093607;28;20051;-58
2023/03/12 10:49:22;;;;;;;8.60;5.47;;;2.10;99.90;;;;;;5093830;28;20042;-58
2023/03/12 10:52:20;;;;;;;9.35;4.70;;;2.10;99.90;;;;;;5083249;28;20520;-58
2023/03/12 10:54:51;;;;;;;9.63;5.40;;;2.40;99.90;;;;;;5093995;28;20036;-58
2023/03/12 10:57:17;;;;;;;8.90;5.28;;;2.30;99.90;;;;;;5072105;28;20040;-58
2023/03/12 10:59:46;;;;;;;8.02;4.80;;;2.60;99.90;;;;;;5080361;28;20369;-57
2023/03/12 11:02:43;;;;;;;9.13;5.30;;;2.90;99.90;;;;;;5083421;28;20071;-57
2023/03/12 11:05:30;;;;;;;9.80;4.68;;;2.50;99.90;;;;;;5083076;28;20047;-57
2023/03/12 11:07:56;;;;;;;8.85;5.70;;;2.90;99.90;;;;;;5083920;28;20450;-57
2023/03/12 11:10:43;;;;;;;11.38;5.40;;;2.30;99.90;;;;;;5073887;28;20056;-57
2023/03/12 11:13:31;;;;;;;9.25;5.22;;;2.00;99.90;;;;;;5073325;28;20381;-57
2023/03/12 11:16:20;;;;;;;12.52;5.53;;;2.60;99.90;;;;;;5073192;28;20040;-56
2023/03/12 11:18:58;;;;;;;10.07;5.82;;;3.20;99.90;;;;;;5073677;28;20396;-57
2023/03/12 11:21:24;;;;;;;10.82;5.93;;;2.10;99.90;;;;;;5073389;28;20040;-57
2023/03/12 11:23:56;;;;;;;10.27;5.88;;;2.60;99.90;;;;;;5071934;28;20044;-56
2023/03/12 11:26:24;;;;;;;12.77;6.35;;;3.20;99.90;;;;;;5072273;28;20053;-57
2023/03/12 11:29:01;;;;;;;9.38;5.38;;;3.50;99.90;;;;;;5073344;28;20036;-59
2023/03/12 11:31:32;;;;;;;13.75;6.47;;;3.60;99.90;;;;;;5073179;28;20037;-57
2023/03/12 11:34:04;;;;;;;11.93;5.77;;;2.50;99.90;;;;;;5072962;28;20040;-57
2023/03/12 11:37:14;;;;;;;12.88;6.25;;;3.60;99.90;;;;;;5073178;28;20036;-57
2023/03/12 11:39:42;;;;;;;10.05;6.05;;;3.50;99.90;;;;;;5030342;28;20046;-58
2023/03/12 11:42:32;;;;;;;11.27;6.18;;;2.90;99.90;;;;;;5029999;28;20041;-58
2023/03/12 11:45:33;;;;;;;12.27;7.43;;;3.20;99.90;;;;;;5059671;28;20050;-58
2023/03/12 11:48:44;;;;;;;11.63;5.82;;;3.50;99.90;;;;;;5075620;28;20060;-57
2023/03/12 11:51:38;;;;;;;9.77;5.53;;;3.50;99.90;;;;;;5077426;28;20040;-57
2023/03/12 11:54:36;;;;;;;10.57;5.90;;;4.20;99.90;;;;;;5080669;28;20040;-56
2023/03/12 11:57:11;;;;;;;11.55;6.82;;;2.80;99.90;;;;;;5077692;28;20040;-56
2023/03/12 11:59:59;;;;;;;11.07;6.43;;;4.50;99.90;;;;;;5071148;28;20036;-57
2023/03/12 12:02:34;;;;;;;10.05;5.80;;;3.70;99.90;;;;;;5072859;28;20040;-57
2023/03/12 12:05:37;;;;;;;13.07;6.85;;;3.70;99.90;;;;;;5072285;28;20128;-57
2023/03/12 12:08:16;;;;;;;;;;;3.40;99.90;;;;;;5071557;28;20063;-57
2023/03/12 12:11:04;;;;;;;10.45;6.07;;;4.90;99.90;;;;;;5072715;28;20250;-56
2023/03/12 12:13:45;;;;;;;11.02;6.50;;;4.00;99.90;;;;;;5066384;28;20528;-57
2023/03/12 12:16:38;;;;;;;11.32;5.45;;;3.70;99.90;;;;;;5070810;28;20055;-56
2023/03/12 12:19:25;;;;;;;11.10;5.95;;;5.00;99.90;;;;;;5071911;28;20444;-56
2023/03/12 12:21:59;;;;;;;13.85;7.10;;;4.60;99.90;;;;;;5071858;28;20410;-57
2023/03/12 12:24:39;;;;;;;11.80;6.32;;;5.80;99.90;;;;;;5072019;28;20043;-57
2023/03/12 12:27:31;;;;;;;12.15;7.15;;;4.20;99.90;;;;;;5070667;28;20415;-57
2023/03/12 12:30:38;;;;;;;11.93;6.60;;;4.40;99.90;;;;;;5069522;28;20048;-57
2023/03/12 12:33:41;;;;;;;12.98;6.40;;;4.40;99.90;;;;;;5034383;28;20485;-56
2023/03/12 12:36:10;;;;;;;11.25;6.25;;;6.30;99.90;;;;;;5058728;28;20056;-57
2023/03/12 12:38:50;;;;;;;12.65;6.13;;;4.60;99.90;;;;;;5070432;28;20123;-56
2023/03/12 12:41:23;;;;;;;15.20;6.90;;;6.40;99.90;;;;;;5071597;28;20040;-57
2023/03/12 12:44:00;;;;;;;14.73;6.97;;;6.40;99.90;;;;;;5071487;28;20039;-57
2023/03/12 12:47:01;;;;;;;15.68;6.80;;;6.90;99.90;;;;;;5071952;28;20087;-57
2023/03/12 12:49:44;;;;;;;13.50;6.60;;;5.10;99.90;;;;;;5054549;28;20055;-57
2023/03/12 12:52:18;;;;;;;15.35;6.55;;;5.40;99.90;;;;;;5091523;28;20098;-57
2023/03/12 12:54:53;;;;;;;15.40;7.00;;;7.30;99.90;;;;;;5091856;28;20079;-57
2023/03/12 12:57:43;;;;;;;16.10;7.18;;;7.60;99.90;;;;;;5091513;28;20475;-56
2023/03/12 13:00:21;;;;;;;13.77;7.35;;;6.30;99.90;;;;;;5091582;28;20087;-54
2023/03/12 13:02:49;;;;;;;14.77;7.60;;;5.80;99.90;;;;;;5091551;28;20040;-55
2023/03/12 13:05:21;;;;;;;17.40;7.55;;;7.80;99.90;;;;;;5091186;28;20083;-56
2023/03/12 13:07:47;;;;;;;17.35;8.73;;;7.80;99.90;;;;;;5091716;28;20127;-56
2023/03/12 13:10:33;;;;;;;17.23;7.47;;;5.70;99.90;;;;;;5090243;28;20115;-56